sensor_id;sensor_type;location;lat;lon;timestamp;temperature;humidity
57088;DHT22;42965;52.846;6.614;2023-05-28T00:01:12;11.80;99.90
57088;DHT22;42965;52.846;6.614;2023-05-28T00:03:38;11.80;99.90
57088;DHT22;42965;52.846;6.614;2023-05-28T00:06:07;11.70;99.90
57088;DHT22;42965;52.846;6.614;2023-05-28T00:08:33;11.70;99.90
57088;DHT22;42965;52.846;6.614;2023-05-28T00:11:00;11.70;99.90
57088;DHT22;42965;52.846;6.614;2023-05-28T00:13:29;11.70;99.90
57088;DHT22;42965;52.846;6.614;2023-05-28T00:15:56;11.70;99.90
57088;DHT22;42965;52.846;6.614;2023-05-28T00:18:22;11.60;99.90
57088;DHT22;42965;52.846;6.614;2023-05-28T00:20:50;11.60;99.90
57088;DHT22;42965;52.846;6.614;2023-05-28T00:23:16;11.50;99.90
57088;DHT22;42965;52.846;6.614;2023-05-28T00:25:43;11.50;99.90
57088;DHT22;42965;52.846;6.614;2023-05-28T00:28:09;11.50;99.90
57088;DHT22;42965;52.846;6.614;2023-05-28T00:30:35;11.40;99.90
57088;DHT22;42965;52.846;6.614;2023-05-28T00:33:02;11.40;99.90
57088;DHT22;42965;52.846;6.614;2023-05-28T00:35:29;11.40;99.90
57088;DHT22;42965;52.846;6.614;2023-05-28T00:37:55;11.40;99.90
57088;DHT22;42965;52.846;6.614;2023-05-28T00:40:21;11.30;99.90
57088;DHT22;42965;52.846;6.614;2023-05-28T00:42:48;11.30;99.90
57088;DHT22;42965;52.846;6.614;2023-05-28T00:45:14;11.20;99.90
57088;DHT22;42965;52.846;6.614;2023-05-28T00:47:41;11.20;99.90
57088;DHT22;42965;52.846;6.614;2023-05-28T00:50:09;11.20;99.90
57088;DHT22;42965;52.846;6.614;2023-05-28T00:52:36;11.20;99.90
57088;DHT22;42965;52.846;6.614;2023-05-28T00:55:07;11.20;99.90
57088;DHT22;42965;52.846;6.614;2023-05-28T00:57:39;11.10;99.90
57088;DHT22;42965;52.846;6.614;2023-05-28T01:00:06;11.10;99.90
57088;DHT22;42965;52.846;6.614;2023-05-28T01:02:32;11.00;99.90
57088;DHT22;42965;52.846;6.614;2023-05-28T01:04:58;11.00;99.90
57088;DHT22;42965;52.846;6.614;2023-05-28T01:07:25;11.00;99.90
57088;DHT22;42965;52.846;6.614;2023-05-28T01:09:52;11.00;99.90
57088;DHT22;42965;52.846;6.614;2023-05-28T01:12:18;10.90;99.90
57088;DHT22;42965;52.846;6.614;2023-05-28T01:14:45;10.90;99.90
57088;DHT22;42965;52.846;6.614;2023-05-28T01:17:13;10.90;99.90
57088;DHT22;42965;52.846;6.614;2023-05-28T01:19:41;10.90;99.90
57088;DHT22;42965;52.846;6.614;2023-05-28T01:22:09;10.90;99.90
57088;DHT22;42965;52.846;6.614;2023-05-28T01:24:38;10.90;99.90
57088;DHT22;42965;52.846;6.614;2023-05-28T01:27:06;10.90;99.90
57088;DHT22;42965;52.846;6.614;2023-05-28T01:29:32;10.90;99.90
57088;DHT22;42965;52.846;6.614;2023-05-28T01:31:59;10.90;99.90
57088;DHT22;42965;52.846;6.614;2023-05-28T01:34:26;10.90;99.90
57088;DHT22;42965;52.846;6.614;2023-05-28T01:36:58;10.90;99.90
57088;DHT22;42965;52.846;6.614;2023-05-28T01:39:32;10.90;99.90
57088;DHT22;42965;52.846;6.614;2023-05-28T01:42:00;10.90;99.90
57088;DHT22;42965;52.846;6.614;2023-05-28T01:44:29;10.90;99.90
57088;DHT22;42965;52.846;6.614;2023-05-28T01:46:56;10.90;99.90
57088;DHT22;42965;52.846;6.614;2023-05-28T01:49:23;10.90;99.90
57088;DHT22;42965;52.846;6.614;2023-05-28T01:51:52;10.90;99.90
57088;DHT22;42965;52.846;6.614;2023-05-28T01:54:19;10.90;99.90
57088;DHT22;42965;52.846;6.614;2023-05-28T01:56:46;11.00;99.90
57088;DHT22;42965;52.846;6.614;2023-05-28T01:59:13;10.90;99.90
57088;DHT22;42965;52.846;6.614;2023-05-28T02:01:40;11.00;99.90
57088;DHT22;42965;52.846;6.614;2023-05-28T02:04:09;10.90;99.90
57088;DHT22;42965;52.846;6.614;2023-05-28T02:06:36;11.00;99.90
57088;DHT22;42965;52.846;6.614;2023-05-28T02:09:02;11.00;99.90
57088;DHT22;42965;52.846;6.614;2023-05-28T02:11:29;10.90;99.90
57088;DHT22;42965;52.846;6.614;2023-05-28T02:13:56;11.00;99.90
57088;DHT22;42965;52.846;6.614;2023-05-28T02:16:23;11.00;99.90
57088;DHT22;42965;52.846;6.614;2023-05-28T02:18:53;11.00;99.90
57088;DHT22;42965;52.846;6.614;2023-05-28T02:21:22;11.00;99.90
57088;DHT22;42965;52.846;6.614;2023-05-28T02:23:49;11.00;99.90
57088;DHT22;42965;52.846;6.614;2023-05-28T02:26:17;11.00;99.90
57088;DHT22;42965;52.846;6.614;2023-05-28T02:28:44;11.00;99.90
57088;DHT22;42965;52.846;6.614;2023-05-28T02:31:14;11.10;99.90
57088;DHT22;42965;52.846;6.614;2023-05-28T02:33:41;11.10;99.90
57088;DHT22;42965;52.846;6.614;2023-05-28T02:36:09;11.10;99.90
57088;DHT22;42965;52.846;6.614;2023-05-28T02:38:40;11.10;99.90
57088;DHT22;42965;52.846;6.614;2023-05-28T02:41:08;11.10;99.90
57088;DHT22;42965;52.846;6.614;2023-05-28T02:43:36;11.10;99.90
57088;DHT22;42965;52.846;6.614;2023-05-28T02:46:05;11.10;99.90
57088;DHT22;42965;52.846;6.614;2023-05-28T02:48:32;11.10;99.90
57088;DHT22;42965;52.846;6.614;2023-05-28T02:50:59;11.20;99.90
57088;DHT22;42965;52.846;6.614;2023-05-28T02:53:43;11.20;99.90
57088;DHT22;42965;52.846;6.614;2023-05-28T02:56:11;11.20;99.90
57088;DHT22;42965;52.846;6.614;2023-05-28T02:58:42;11.20;99.90
57088;DHT22;42965;52.846;6.614;2023-05-28T03:01:08;11.10;99.90
57088;DHT22;42965;52.846;6.614;2023-05-28T03:03:36;11.10;99.90
57088;DHT22;42965;52.846;6.614;2023-05-28T03:06:02;11.10;99.90
57088;DHT22;42965;52.846;6.614;2023-05-28T03:08:34;11.10;99.90
57088;DHT22;42965;52.846;6.614;2023-05-28T03:11:01;11.10;99.90
57088;DHT22;42965;52.846;6.614;2023-05-28T03:13:27;11.10;99.90
57088;DHT22;42965;52.846;6.614;2023-05-28T03:15:53;11.20;99.90
57088;DHT22;42965;52.846;6.614;2023-05-28T03:18:20;11.10;99.90
57088;DHT22;42965;52.846;6.614;2023-05-28T03:20:47;11.10;99.90
57088;DHT22;42965;52.846;6.614;2023-05-28T03:23:13;11.10;99.90
57088;DHT22;42965;52.846;6.614;2023-05-28T03:26:06;11.00;99.90
57088;DHT22;42965;52.846;6.614;2023-05-28T03:28:32;11.00;99.90
57088;DHT22;42965;52.846;6.614;2023-05-28T03:31:19;11.00;99.90
57088;DHT22;42965;52.846;6.614;2023-05-28T03:33:47;11.00;99.90
57088;DHT22;42965;52.846;6.614;2023-05-28T03:36:14;11.00;99.90
57088;DHT22;42965;52.846;6.614;2023-05-28T03:38:40;11.00;99.90
57088;DHT22;42965;52.846;6.614;2023-05-28T03:41:06;11.10;99.90
57088;DHT22;42965;52.846;6.614;2023-05-28T03:43:34;11.10;99.90
57088;DHT22;42965;52.846;6.614;2023-05-28T03:46:03;11.10;99.90
57088;DHT22;42965;52.846;6.614;2023-05-28T03:48:29;11.10;99.90
57088;DHT22;42965;52.846;6.614;2023-05-28T03:50:55;11.10;99.90
57088;DHT22;42965;52.846;6.614;2023-05-28T03:53:22;11.10;99.90
57088;DHT22;42965;52.846;6.614;2023-05-28T03:55:49;11.10;99.90
57088;DHT22;42965;52.846;6.614;2023-05-28T03:58:17;11.10;99.90
57088;DHT22;42965;52.846;6.614;2023-05-28T04:00:44;11.10;99.90
57088;DHT22;42965;52.846;6.614;2023-05-28T04:03:10;11.10;99.90
57088;DHT22;42965;52.846;6.614;2023-05-28T04:05:40;11.10;99.90
57088;DHT22;42965;52.846;6.614;2023-05-28T04:08:07;11.10;99.90
57088;DHT22;42965;52.846;6.614;2023-05-28T04:10:33;11.10;99.90
57088;DHT22;42965;52.846;6.614;2023-05-28T04:12:59;11.10;99.90
57088;DHT22;42965;52.846;6.614;2023-05-28T04:15:25;11.10;99.90
57088;DHT22;42965;52.846;6.614;2023-05-28T04:17:52;11.10;99.90
57088;DHT22;42965;52.846;6.614;2023-05-28T04:20:18;11.10;99.90
57088;DHT22;42965;52.846;6.614;2023-05-28T04:22:48;11.10;99.90
57088;DHT22;42965;52.846;6.614;2023-05-28T04:25:14;11.00;99.90
57088;DHT22;42965;52.846;6.614;2023-05-28T04:27:41;11.00;99.90
57088;DHT22;42965;52.846;6.614;2023-05-28T04:30:08;11.10;99.90
57088;DHT22;42965;52.846;6.614;2023-05-28T04:32:35;11.10;99.90
57088;DHT22;42965;52.846;6.614;2023-05-28T04:35:02;11.10;99.90
57088;DHT22;42965;52.846;6.614;2023-05-28T04:37:30;11.10;99.90
57088;DHT22;42965;52.846;6.614;2023-05-28T04:39:58;11.10;99.90
57088;DHT22;42965;52.846;6.614;2023-05-28T04:42:25;11.10;99.90
57088;DHT22;42965;52.846;6.614;2023-05-28T04:44:54;11.10;99.90
57088;DHT22;42965;52.846;6.614;2023-05-28T04:47:22;11.10;99.90
57088;DHT22;42965;52.846;6.614;2023-05-28T04:49:50;11.20;99.90
57088;DHT22;42965;52.846;6.614;2023-05-28T04:52:17;11.30;99.90
57088;DHT22;42965;52.846;6.614;2023-05-28T04:54:45;11.30;99.90
57088;DHT22;42965;52.846;6.614;2023-05-28T04:57:11;11.30;99.90
57088;DHT22;42965;52.846;6.614;2023-05-28T04:59:38;11.40;99.90
57088;DHT22;42965;52.846;6.614;2023-05-28T05:02:04;11.40;99.90
57088;DHT22;42965;52.846;6.614;2023-05-28T05:04:30;11.50;99.90
57088;DHT22;42965;52.846;6.614;2023-05-28T05:06:57;11.50;99.90
57088;DHT22;42965;52.846;6.614;2023-05-28T05:09:23;11.70;99.90
57088;DHT22;42965;52.846;6.614;2023-05-28T05:11:50;11.80;99.90
57088;DHT22;42965;52.846;6.614;2023-05-28T05:14:17;12.10;99.90
57088;DHT22;42965;52.846;6.614;2023-05-28T05:16:43;12.30;99.90
57088;DHT22;42965;52.846;6.614;2023-05-28T05:19:12;12.60;99.90
57088;DHT22;42965;52.846;6.614;2023-05-28T05:21:38;12.80;99.90
57088;DHT22;42965;52.846;6.614;2023-05-28T05:24:04;13.10;99.90
57088;DHT22;42965;52.846;6.614;2023-05-28T05:26:31;13.40;99.90
57088;DHT22;42965;52.846;6.614;2023-05-28T05:28:58;13.70;99.90
57088;DHT22;42965;52.846;6.614;2023-05-28T05:31:24;14.00;99.90
57088;DHT22;42965;52.846;6.614;2023-05-28T05:33:51;14.20;99.90
57088;DHT22;42965;52.846;6.614;2023-05-28T05:36:20;14.40;99.90
57088;DHT22;42965;52.846;6.614;2023-05-28T05:39:02;14.50;99.90
57088;DHT22;42965;52.846;6.614;2023-05-28T05:41:49;14.60;99.90
57088;DHT22;42965;52.846;6.614;2023-05-28T05:44:27;14.70;99.90
57088;DHT22;42965;52.846;6.614;2023-05-28T05:46:53;14.80;99.90
57088;DHT22;42965;52.846;6.614;2023-05-28T05:49:20;15.10;99.90
57088;DHT22;42965;52.846;6.614;2023-05-28T05:51:46;15.40;99.90
57088;DHT22;42965;52.846;6.614;2023-05-28T05:54:13;15.70;99.90
57088;DHT22;42965;52.846;6.614;2023-05-28T05:56:39;15.90;99.90
57088;DHT22;42965;52.846;6.614;2023-05-28T05:59:06;16.10;99.90
57088;DHT22;42965;52.846;6.614;2023-05-28T06:01:33;16.10;99.90
57088;DHT22;42965;52.846;6.614;2023-05-28T06:03:59;16.30;99.90
57088;DHT22;42965;52.846;6.614;2023-05-28T06:06:34;16.40;99.90
57088;DHT22;42965;52.846;6.614;2023-05-28T06:09:05;16.60;99.90
57088;DHT22;42965;52.846;6.614;2023-05-28T06:11:44;16.60;99.90
57088;DHT22;42965;52.846;6.614;2023-05-28T06:14:11;16.60;99.90
57088;DHT22;42965;52.846;6.614;2023-05-28T06:16:38;16.50;99.90
57088;DHT22;42965;52.846;6.614;2023-05-28T06:19:04;16.50;99.90
57088;DHT22;42965;52.846;6.614;2023-05-28T06:21:30;16.40;99.90
57088;DHT22;42965;52.846;6.614;2023-05-28T06:23:57;16.30;99.90
57088;DHT22;42965;52.846;6.614;2023-05-28T06:26:23;16.30;99.90
57088;DHT22;42965;52.846;6.614;2023-05-28T06:28:50;16.30;99.90
57088;DHT22;42965;52.846;6.614;2023-05-28T06:31:17;16.20;99.90
57088;DHT22;42965;52.846;6.614;2023-05-28T06:33:43;16.20;99.90
57088;DHT22;42965;52.846;6.614;2023-05-28T06:36:09;16.30;99.90
57088;DHT22;42965;52.846;6.614;2023-05-28T06:38:37;16.40;99.90
57088;DHT22;42965;52.846;6.614;2023-05-28T06:41:04;16.80;99.90
57088;DHT22;42965;52.846;6.614;2023-05-28T06:43:37;17.10;99.90
57088;DHT22;42965;52.846;6.614;2023-05-28T06:46:09;17.40;99.90
57088;DHT22;42965;52.846;6.614;2023-05-28T06:48:37;17.80;99.90
57088;DHT22;42965;52.846;6.614;2023-05-28T06:51:04;18.00;99.90
57088;DHT22;42965;52.846;6.614;2023-05-28T06:53:34;18.20;99.90
57088;DHT22;42965;52.846;6.614;2023-05-28T06:56:00;18.40;99.90
57088;DHT22;42965;52.846;6.614;2023-05-28T06:59:05;18.60;99.90
57088;DHT22;42965;52.846;6.614;2023-05-28T07:01:52;18.80;99.90
57088;DHT22;42965;52.846;6.614;2023-05-28T07:04:33;19.10;99.90
57088;DHT22;42965;52.846;6.614;2023-05-28T07:07:05;19.10;99.90
57088;DHT22;42965;52.846;6.614;2023-05-28T07:09:33;19.40;99.90
57088;DHT22;42965;52.846;6.614;2023-05-28T07:12:00;19.50;99.90
57088;DHT22;42965;52.846;6.614;2023-05-28T07:14:28;19.70;99.90
57088;DHT22;42965;52.846;6.614;2023-05-28T07:16:54;19.90;99.90
57088;DHT22;42965;52.846;6.614;2023-05-28T07:19:21;20.00;99.90
57088;DHT22;42965;52.846;6.614;2023-05-28T07:21:48;20.20;99.90
57088;DHT22;42965;52.846;6.614;2023-05-28T07:24:14;20.10;99.90
57088;DHT22;42965;52.846;6.614;2023-05-28T07:26:41;20.20;99.90
57088;DHT22;42965;52.846;6.614;2023-05-28T07:29:07;20.30;99.90
57088;DHT22;42965;52.846;6.614;2023-05-28T07:31:33;20.50;99.90
57088;DHT22;42965;52.846;6.614;2023-05-28T07:34:02;20.50;99.90
57088;DHT22;42965;52.846;6.614;2023-05-28T07:36:32;20.60;99.90
57088;DHT22;42965;52.846;6.614;2023-05-28T07:38:58;20.40;95.80
57088;DHT22;42965;52.846;6.614;2023-05-28T07:41:28;20.60;98.70
57088;DHT22;42965;52.846;6.614;2023-05-28T07:44:07;20.70;99.60
57088;DHT22;42965;52.846;6.614;2023-05-28T07:46:34;20.70;99.40
57088;DHT22;42965;52.846;6.614;2023-05-28T07:49:09;20.90;97.10
57088;DHT22;42965;52.846;6.614;2023-05-28T07:51:42;21.20;93.80
57088;DHT22;42965;52.846;6.614;2023-05-28T07:54:17;21.20;84.30
57088;DHT22;42965;52.846;6.614;2023-05-28T07:56:46;21.40;91.60
57088;DHT22;42965;52.846;6.614;2023-05-28T07:59:19;21.60;73.10
57088;DHT22;42965;52.846;6.614;2023-05-28T08:01:48;21.60;69.60
57088;DHT22;42965;52.846;6.614;2023-05-28T08:04:15;21.70;74.40
57088;DHT22;42965;52.846;6.614;2023-05-28T08:06:41;21.60;70.80
57088;DHT22;42965;52.846;6.614;2023-05-28T08:09:11;21.70;69.20
57088;DHT22;42965;52.846;6.614;2023-05-28T08:11:39;22.10;69.40
57088;DHT22;42965;52.846;6.614;2023-05-28T08:14:06;22.30;64.80
57088;DHT22;42965;52.846;6.614;2023-05-28T08:16:32;22.40;64.00
57088;DHT22;42965;52.846;6.614;2023-05-28T08:19:16;22.50;61.80
57088;DHT22;42965;52.846;6.614;2023-05-28T08:21:45;22.70;60.60
57088;DHT22;42965;52.846;6.614;2023-05-28T08:24:11;22.60;60.70
57088;DHT22;42965;52.846;6.614;2023-05-28T08:26:40;22.80;58.90
57088;DHT22;42965;52.846;6.614;2023-05-28T08:29:07;22.60;57.90
57088;DHT22;42965;52.846;6.614;2023-05-28T08:31:39;22.80;57.70
57088;DHT22;42965;52.846;6.614;2023-05-28T08:34:35;22.80;56.90
57088;DHT22;42965;52.846;6.614;2023-05-28T08:37:04;22.90;57.20
57088;DHT22;42965;52.846;6.614;2023-05-28T08:39:42;23.00;56.20
57088;DHT22;42965;52.846;6.614;2023-05-28T08:42:10;23.20;55.60
57088;DHT22;42965;52.846;6.614;2023-05-28T08:44:37;23.30;55.30
57088;DHT22;42965;52.846;6.614;2023-05-28T08:47:04;23.20;54.50
57088;DHT22;42965;52.846;6.614;2023-05-28T08:49:43;23.20;54.00
57088;DHT22;42965;52.846;6.614;2023-05-28T08:52:14;23.60;53.90
57088;DHT22;42965;52.846;6.614;2023-05-28T08:54:51;23.70;53.90
57088;DHT22;42965;52.846;6.614;2023-05-28T08:57:17;23.80;52.10
57088;DHT22;42965;52.846;6.614;2023-05-28T08:59:54;24.10;53.40
57088;DHT22;42965;52.846;6.614;2023-05-28T09:02:26;24.00;51.90
57088;DHT22;42965;52.846;6.614;2023-05-28T09:04:52;24.10;51.60
57088;DHT22;42965;52.846;6.614;2023-05-28T09:07:19;24.40;50.90
57088;DHT22;42965;52.846;6.614;2023-05-28T09:09:55;24.80;51.10
57088;DHT22;42965;52.846;6.614;2023-05-28T09:12:27;24.60;50.60
57088;DHT22;42965;52.846;6.614;2023-05-28T09:14:59;24.80;52.10
57088;DHT22;42965;52.846;6.614;2023-05-28T09:17:38;24.90;51.60
57088;DHT22;42965;52.846;6.614;2023-05-28T09:20:17;25.10;50.30
57088;DHT22;42965;52.846;6.614;2023-05-28T09:22:44;25.00;51.50
57088;DHT22;42965;52.846;6.614;2023-05-28T09:25:36;24.90;50.90
57088;DHT22;42965;52.846;6.614;2023-05-28T09:28:12;24.90;50.40
57088;DHT22;42965;52.846;6.614;2023-05-28T09:30:40;24.80;50.60
57088;DHT22;42965;52.846;6.614;2023-05-28T09:33:08;25.00;50.50
57088;DHT22;42965;52.846;6.614;2023-05-28T09:35:35;25.20;50.50
57088;DHT22;42965;52.846;6.614;2023-05-28T09:38:12;25.20;49.80
57088;DHT22;42965;52.846;6.614;2023-05-28T09:40:40;25.40;48.70
57088;DHT22;42965;52.846;6.614;2023-05-28T09:43:09;25.60;49.60
57088;DHT22;42965;52.846;6.614;2023-05-28T09:45:36;25.70;48.40
57088;DHT22;42965;52.846;6.614;2023-05-28T09:48:03;25.90;49.20
57088;DHT22;42965;52.846;6.614;2023-05-28T09:50:30;26.10;49.50
57088;DHT22;42965;52.846;6.614;2023-05-28T09:52:58;26.50;47.10
57088;DHT22;42965;52.846;6.614;2023-05-28T09:55:26;26.50;47.10
57088;DHT22;42965;52.846;6.614;2023-05-28T10:00:37;26.50;45.60
57088;DHT22;42965;52.846;6.614;2023-05-28T10:03:22;26.80;46.20
57088;DHT22;42965;52.846;6.614;2023-05-28T10:05:52;27.00;45.10
57088;DHT22;42965;52.846;6.614;2023-05-28T10:08:19;27.10;46.00
57088;DHT22;42965;52.846;6.614;2023-05-28T10:10:53;27.30;45.90
57088;DHT22;42965;52.846;6.614;2023-05-28T10:13:20;26.90;44.10
57088;DHT22;42965;52.846;6.614;2023-05-28T10:15:47;27.00;44.00
57088;DHT22;42965;52.846;6.614;2023-05-28T10:18:14;27.20;44.90
57088;DHT22;42965;52.846;6.614;2023-05-28T10:20:41;26.90;43.60
57088;DHT22;42965;52.846;6.614;2023-05-28T10:23:10;27.30;43.80
57088;DHT22;42965;52.846;6.614;2023-05-28T10:25:37;27.20;42.40
57088;DHT22;42965;52.846;6.614;2023-05-28T10:28:03;27.50;42.30
57088;DHT22;42965;52.846;6.614;2023-05-28T10:30:32;27.50;42.30
57088;DHT22;42965;52.846;6.614;2023-05-28T10:32:59;27.60;42.50
57088;DHT22;42965;52.846;6.614;2023-05-28T10:35:26;27.60;42.20
57088;DHT22;42965;52.846;6.614;2023-05-28T10:38:03;27.80;41.70
57088;DHT22;42965;52.846;6.614;2023-05-28T10:40:29;27.80;41.40
57088;DHT22;42965;52.846;6.614;2023-05-28T10:42:59;27.90;41.70
57088;DHT22;42965;52.846;6.614;2023-05-28T10:45:37;28.10;41.20
57088;DHT22;42965;52.846;6.614;2023-05-28T10:48:03;28.10;40.60
57088;DHT22;42965;52.846;6.614;2023-05-28T10:50:31;27.80;40.50
57088;DHT22;42965;52.846;6.614;2023-05-28T10:53:06;28.00;41.10
57088;DHT22;42965;52.846;6.614;2023-05-28T10:55:53;28.10;40.60
57088;DHT22;42965;52.846;6.614;2023-05-28T10:58:24;28.00;41.00
57088;DHT22;42965;52.846;6.614;2023-05-28T11:00:52;28.00;41.30
57088;DHT22;42965;52.846;6.614;2023-05-28T11:03:41;28.20;41.50
57088;DHT22;42965;52.846;6.614;2023-05-28T11:06:08;28.10;41.60
57088;DHT22;42965;52.846;6.614;2023-05-28T11:08:44;28.10;41.50
57088;DHT22;42965;52.846;6.614;2023-05-28T11:11:15;28.20;41.20
57088;DHT22;42965;52.846;6.614;2023-05-28T11:13:46;28.10;40.90
57088;DHT22;42965;52.846;6.614;2023-05-28T11:16:17;28.00;41.20
57088;DHT22;42965;52.846;6.614;2023-05-28T11:19:07;28.10;40.80
57088;DHT22;42965;52.846;6.614;2023-05-28T11:21:54;28.20;41.00
57088;DHT22;42965;52.846;6.614;2023-05-28T11:24:21;28.30;40.30
57088;DHT22;42965;52.846;6.614;2023-05-28T11:26:48;27.80;40.30
57088;DHT22;42965;52.846;6.614;2023-05-28T11:29:15;28.20;40.60
57088;DHT22;42965;52.846;6.614;2023-05-28T11:31:42;28.20;40.70
57088;DHT22;42965;52.846;6.614;2023-05-28T11:34:08;28.40;39.50
57088;DHT22;42965;52.846;6.614;2023-05-28T11:36:42;28.40;39.40
57088;DHT22;42965;52.846;6.614;2023-05-28T11:39:09;28.30;39.00
57088;DHT22;42965;52.846;6.614;2023-05-28T11:41:41;28.30;38.50
57088;DHT22;42965;52.846;6.614;2023-05-28T11:44:21;28.10;38.40
57088;DHT22;42965;52.846;6.614;2023-05-28T11:46:54;28.30;39.00
57088;DHT22;42965;52.846;6.614;2023-05-28T11:49:21;28.20;37.90
57088;DHT22;42965;52.846;6.614;2023-05-28T11:51:52;28.10;37.90
57088;DHT22;42965;52.846;6.614;2023-05-28T11:54:18;28.10;37.30
57088;DHT22;42965;52.846;6.614;2023-05-28T11:56:48;28.20;37.80
57088;DHT22;42965;52.846;6.614;2023-05-28T11:59:15;28.10;37.50
57088;DHT22;42965;52.846;6.614;2023-05-28T12:01:45;28.20;38.00
57088;DHT22;42965;52.846;6.614;2023-05-28T12:04:11;28.10;37.10
57088;DHT22;42965;52.846;6.614;2023-05-28T12:06:53;28.10;36.90
57088;DHT22;42965;52.846;6.614;2023-05-28T12:09:21;28.20;36.60
57088;DHT22;42965;52.846;6.614;2023-05-28T12:12:04;28.20;36.40
57088;DHT22;42965;52.846;6.614;2023-05-28T12:14:30;28.30;36.10
57088;DHT22;42965;52.846;6.614;2023-05-28T12:17:04;28.10;35.80
57088;DHT22;42965;52.846;6.614;2023-05-28T12:19:37;28.10;35.20
57088;DHT22;42965;52.846;6.614;2023-05-28T12:22:12;27.80;35.50
57088;DHT22;42965;52.846;6.614;2023-05-28T12:24:52;28.00;36.30
57088;DHT22;42965;52.846;6.614;2023-05-28T12:27:21;28.30;36.90
57088;DHT22;42965;52.846;6.614;2023-05-28T12:29:47;28.30;36.70
57088;DHT22;42965;52.846;6.614;2023-05-28T12:32:14;28.20;37.20
57088;DHT22;42965;52.846;6.614;2023-05-28T12:34:40;28.50;36.50
57088;DHT22;42965;52.846;6.614;2023-05-28T12:37:06;28.20;36.20
57088;DHT22;42965;52.846;6.614;2023-05-28T12:39:33;28.10;36.60
57088;DHT22;42965;52.846;6.614;2023-05-28T12:42:02;28.20;36.50
57088;DHT22;42965;52.846;6.614;2023-05-28T12:44:29;28.50;35.80
57088;DHT22;42965;52.846;6.614;2023-05-28T12:46:56;28.70;36.20
57088;DHT22;42965;52.846;6.614;2023-05-28T12:49:23;28.50;35.30
57088;DHT22;42965;52.846;6.614;2023-05-28T12:51:49;28.60;37.00
57088;DHT22;42965;52.846;6.614;2023-05-28T12:54:16;28.90;36.30
57088;DHT22;42965;52.846;6.614;2023-05-28T12:56:44;28.90;35.60
57088;DHT22;42965;52.846;6.614;2023-05-28T12:59:22;29.00;35.80
57088;DHT22;42965;52.846;6.614;2023-05-28T13:01:49;29.20;35.40
57088;DHT22;42965;52.846;6.614;2023-05-28T13:04:16;29.70;35.80
57088;DHT22;42965;52.846;6.614;2023-05-28T13:06:43;29.70;35.50
57088;DHT22;42965;52.846;6.614;2023-05-28T13:09:10;29.80;36.40
57088;DHT22;42965;52.846;6.614;2023-05-28T13:11:43;29.90;36.10
57088;DHT22;42965;52.846;6.614;2023-05-28T13:14:10;30.10;36.40
57088;DHT22;42965;52.846;6.614;2023-05-28T13:16:37;30.10;36.80
57088;DHT22;42965;52.846;6.614;2023-05-28T13:19:06;30.30;37.20
57088;DHT22;42965;52.846;6.614;2023-05-28T13:21:33;30.40;37.60
57088;DHT22;42965;52.846;6.614;2023-05-28T13:24:02;30.70;36.50
57088;DHT22;42965;52.846;6.614;2023-05-28T13:26:30;30.60;36.70
57088;DHT22;42965;52.846;6.614;2023-05-28T13:28:57;30.40;37.00
57088;DHT22;42965;52.846;6.614;2023-05-28T13:31:23;30.70;37.30
57088;DHT22;42965;52.846;6.614;2023-05-28T13:33:50;30.70;36.70
57088;DHT22;42965;52.846;6.614;2023-05-28T13:36:17;30.30;36.80
57088;DHT22;42965;52.846;6.614;2023-05-28T13:38:44;30.30;37.20
57088;DHT22;42965;52.846;6.614;2023-05-28T13:41:12;30.70;37.60
57088;DHT22;42965;52.846;6.614;2023-05-28T13:43:39;30.20;39.10
57088;DHT22;42965;52.846;6.614;2023-05-28T13:46:05;30.20;39.60
57088;DHT22;42965;52.846;6.614;2023-05-28T13:48:33;29.90;40.60
57088;DHT22;42965;52.846;6.614;2023-05-28T13:51:00;30.30;40.10
57088;DHT22;42965;52.846;6.614;2023-05-28T13:53:31;30.30;40.60
57088;DHT22;42965;52.846;6.614;2023-05-28T13:56:05;29.70;41.00
57088;DHT22;42965;52.846;6.614;2023-05-28T13:58:31;29.80;41.70
57088;DHT22;42965;52.846;6.614;2023-05-28T14:00:59;29.80;41.60
57088;DHT22;42965;52.846;6.614;2023-05-28T14:03:26;29.20;41.90
57088;DHT22;42965;52.846;6.614;2023-05-28T14:05:53;29.10;43.10
57088;DHT22;42965;52.846;6.614;2023-05-28T14:08:19;29.10;43.00
57088;DHT22;42965;52.846;6.614;2023-05-28T14:10:46;28.60;42.80
57088;DHT22;42965;52.846;6.614;2023-05-28T14:13:12;28.00;43.40
57088;DHT22;42965;52.846;6.614;2023-05-28T14:15:42;28.30;44.20
57088;DHT22;42965;52.846;6.614;2023-05-28T14:18:10;28.60;44.30
57088;DHT22;42965;52.846;6.614;2023-05-28T14:20:37;28.50;44.50
57088;DHT22;42965;52.846;6.614;2023-05-28T14:23:03;28.90;44.20
57088;DHT22;42965;52.846;6.614;2023-05-28T14:25:30;29.10;43.90
57088;DHT22;42965;52.846;6.614;2023-05-28T14:27:57;28.50;43.80
57088;DHT22;42965;52.846;6.614;2023-05-28T14:30:24;28.60;43.90
57088;DHT22;42965;52.846;6.614;2023-05-28T14:32:50;28.70;44.60
57088;DHT22;42965;52.846;6.614;2023-05-28T14:35:16;28.50;44.40
57088;DHT22;42965;52.846;6.614;2023-05-28T14:37:44;28.20;44.80
57088;DHT22;42965;52.846;6.614;2023-05-28T14:40:11;28.10;44.90
57088;DHT22;42965;52.846;6.614;2023-05-28T14:42:38;28.10;45.10
57088;DHT22;42965;52.846;6.614;2023-05-28T14:45:04;28.20;45.20
57088;DHT22;42965;52.846;6.614;2023-05-28T14:47:31;27.90;45.10
57088;DHT22;42965;52.846;6.614;2023-05-28T14:49:58;27.70;45.00
57088;DHT22;42965;52.846;6.614;2023-05-28T14:52:29;27.50;45.80
57088;DHT22;42965;52.846;6.614;2023-05-28T14:54:57;27.30;46.70
57088;DHT22;42965;52.846;6.614;2023-05-28T14:57:27;26.80;47.20
57088;DHT22;42965;52.846;6.614;2023-05-28T15:00:07;26.20;47.30
57088;DHT22;42965;52.846;6.614;2023-05-28T15:02:36;26.10;47.90
57088;DHT22;42965;52.846;6.614;2023-05-28T15:05:03;25.70;47.90
57088;DHT22;42965;52.846;6.614;2023-05-28T15:07:31;25.50;48.50
57088;DHT22;42965;52.846;6.614;2023-05-28T15:09:59;25.50;48.60
57088;DHT22;42965;52.846;6.614;2023-05-28T15:12:25;25.20;47.30
57088;DHT22;42965;52.846;6.614;2023-05-28T15:14:52;25.00;48.00
57088;DHT22;42965;52.846;6.614;2023-05-28T15:17:18;24.80;47.90
57088;DHT22;42965;52.846;6.614;2023-05-28T15:19:50;24.70;48.40
57088;DHT22;42965;52.846;6.614;2023-05-28T15:22:17;24.50;48.30
57088;DHT22;42965;52.846;6.614;2023-05-28T15:24:43;24.30;48.50
57088;DHT22;42965;52.846;6.614;2023-05-28T15:27:10;24.20;48.60
57088;DHT22;42965;52.846;6.614;2023-05-28T15:29:39;23.90;49.10
57088;DHT22;42965;52.846;6.614;2023-05-28T15:32:11;23.60;48.90
57088;DHT22;42965;52.846;6.614;2023-05-28T15:34:38;23.40;49.90
57088;DHT22;42965;52.846;6.614;2023-05-28T15:37:05;23.10;49.70
57088;DHT22;42965;52.846;6.614;2023-05-28T15:39:31;22.90;50.10
57088;DHT22;42965;52.846;6.614;2023-05-28T15:42:00;23.00;50.30
57088;DHT22;42965;52.846;6.614;2023-05-28T15:44:28;22.80;50.40